Transatlantic — WDC2769 — position and weather

sailwx.info

Track history (hours):
 
Tides and Currents Weather Stations Pressure Air Temp Water Temp Dewpoint Dewpoint Depression Visibility Wind Speed Wind Dir Waves Ship Positions

Transatlantic

Owner: TRANSATLANTIC LINES SHIP HOLDINGS II INC, Greenwich, CT. More information available from US FCC via Universal Licensing System and Coast Guard Vessel Documentation Center.

Last reported at 2015-Jun-11 21:21 UTC. Time now 2015-Jul-03 10:34 UTC.
Position N 28°42' W 015°49'.
Warning: this ship's position is 21 days out of date.

Length 101 m; draft 5.8 m.

Type: Cargo ship. MMSI: 366997520.

Date/timePositionNaut miles runAvg speedWind from/ knotsBaromVisibWave heightAir tempDewpointWater temp
2015-Jun-11 21:21N 28°42' W 015°49'911.2
2015-Jun-11 20:33N 28°37' W 015°40'1111.5
2015-Jun-11 19:33N 28°26' W 015°36'1110.7
2015-Jun-11 18:33N 28°18' W 015°28'1110.7
2015-Jun-11 17:33N 28°10' W 015°20'4 3.8
2015-Jun-11 16:33N 28°09' W 015°24'0 0.0
2015-Jun-11 15:33N 28°09' W 015°24'0 0.0
2015-Jun-11 14:33N 28°09' W 015°24'0 0.0
2015-Jun-11 13:33N 28°09' W 015°24'0 0.0
2015-Jun-11 12:33N 28°09' W 015°24'0 0.0
2015-Jun-11 11:33N 28°09' W 015°24'0 0.0
2015-Jun-11 10:33N 28°09' W 015°24'0 0.1
2015-Jun-11 09:33N 28°09' W 015°24'0 0.1
2015-Jun-11 08:33N 28°09' W 015°24'0 0.0
2015-Jun-11 07:33N 28°09' W 015°24'0 0.1
2015-Jun-11 06:33N 28°09' W 015°24'0 0.1
2015-Jun-11 05:33N 28°09' W 015°24'4 3.9
2015-Jun-11 04:33N 28°10' W 015°20'8 8.4
2015-Jun-11 03:33N 28°17' W 015°14'9 8.6
2015-Jun-11 02:33N 28°23' W 015°07'9 8.8
2015-Jun-11 01:33N 28°30' W 015°01'9 8.8
2015-Jun-11 00:33N 28°36' W 014°54'  
2015-Jun-02 21:32N 31°55' W 010°05'3611.6
2015-Jun-02 18:25N 32°30' W 009°59'21211.7
2015-Jun-02 00:19N 35°21' W 007°27'1012.7
2015-Jun-01 23:33N 35°29' W 007°20'1312.8
2015-Jun-01 22:33N 35°39' W 007°10'1212.5
2015-Jun-01 21:33N 35°49' W 007°01'  
Track history (hours):
 
Tides and Currents Weather Stations Pressure Air Temp Water Temp Dewpoint Dewpoint Depression Visibility Wind Speed Wind Dir Waves Ship Positions

Transatlantic

Owner: TRANSATLANTIC LINES SHIP HOLDINGS II INC, Greenwich, CT. More information available from US FCC via Universal Licensing System and Coast Guard Vessel Documentation Center.

Last reported at 2015-Jun-11 21:21 UTC. Time now 2015-Jul-03 10:34 UTC.
Position N 28°42' W 015°49'.
Warning: this ship's position is 21 days out of date.

Length 101 m; draft 5.8 m.

Type: Cargo ship. MMSI: 366997520.

Date/timePositionNaut miles runAvg speedWind from/ knotsBaromVisibWave heightAir tempDewpointWater temp
2015-Jun-11 21:21N 28°42' W 015°49'911.2
2015-Jun-11 20:33N 28°37' W 015°40'1111.5
2015-Jun-11 19:33N 28°26' W 015°36'1110.7
2015-Jun-11 18:33N 28°18' W 015°28'1110.7
2015-Jun-11 17:33N 28°10' W 015°20'4 3.8
2015-Jun-11 16:33N 28°09' W 015°24'0 0.0
2015-Jun-11 15:33N 28°09' W 015°24'0 0.0
2015-Jun-11 14:33N 28°09' W 015°24'0 0.0
2015-Jun-11 13:33N 28°09' W 015°24'0 0.0
2015-Jun-11 12:33N 28°09' W 015°24'0 0.0
2015-Jun-11 11:33N 28°09' W 015°24'0 0.0
2015-Jun-11 10:33N 28°09' W 015°24'0 0.1
2015-Jun-11 09:33N 28°09' W 015°24'0 0.1
2015-Jun-11 08:33N 28°09' W 015°24'0 0.0
2015-Jun-11 07:33N 28°09' W 015°24'0 0.1
2015-Jun-11 06:33N 28°09' W 015°24'0 0.1
2015-Jun-11 05:33N 28°09' W 015°24'4 3.9
2015-Jun-11 04:33N 28°10' W 015°20'8 8.4
2015-Jun-11 03:33N 28°17' W 015°14'9 8.6
2015-Jun-11 02:33N 28°23' W 015°07'9 8.8
2015-Jun-11 01:33N 28°30' W 015°01'9 8.8
2015-Jun-11 00:33N 28°36' W 014°54'  
2015-Jun-02 21:32N 31°55' W 010°05'3611.6
2015-Jun-02 18:25N 32°30' W 009°59'21211.7
2015-Jun-02 00:19N 35°21' W 007°27'1012.7
2015-Jun-01 23:33N 35°29' W 007°20'1312.8
2015-Jun-01 22:33N 35°39' W 007°10'1212.5
2015-Jun-01 21:33N 35°49' W 007°01'  

Dump ship's entire track history